Grizzly Air Cargo 5385


PACD
Cold Bay Airport
Cold Bay, Alaska, US
PANC
Ted Stevens Anchorage International Airport
Anchorage, Alaska, US

Activity Log

Date Flight Route Aircraft Duration
No Flights Yet

Route Details

Aircraft Information
Primary: Saab 340AF
Backup: Not Available
Route Data
Distance: 623nm
Sched. Duration: 1h 50m
Avg. Duration: 0h 00m (-150m)
Times Flown: 0
Recm'd Route: CDB J115 TED
Planned Altitude: 17,000ft
Origin Wx: PACD 281153Z AUTO 27007KT 10SM OVC009 M03/M04 A3002 RMK AO2 SLP168 T10281039 11017 21028 51021 TSNO
Dest. Wx: PANC 281153Z 00000KT 10SM CLR M12/M13 A2974 RMK AO2 SLP075 4/018 I6001 T11221133 11083 21144 53014 $
Notes:

Financial History
Total Freight: 0lbs
Average Load: 0lbs/flt
Fuel Used: 0lbs
Avg. Fuel Used: 0lbs/flt
Fuel Expense: $0
Avg. Fuel Expense: $0
Avg. Fuel Cost: $0/lbs
Total Gross Income: $0
Pilot Pay: $0
Total Expenses: $0
Total Revenue: $0
Average Revenue: $0